Time;durP1;ratioP1;P1;durP2;ratioP2;P2;SDS_P1;SDS_P2;PMS_P1;PMS_P2;Temp;Humidity;BMP_temperature;BMP_pressure;BME280_temperature;BME280_humidity;BME280_pressure;Samples;Min_cycle;Max_cycle;Signal;HPM_P1;HPM_P2
2021/09/28 00:01:30;;;;;;;1.20;1.07;;;17.80;99.90;;;;;;5033607;28;20185;-49
2021/09/28 00:03:55;;;;;;;0.83;0.83;;;17.50;99.90;;;;;;5039010;28;20193;-49
2021/09/28 00:06:21;;;;;;;1.50;1.10;;;17.50;99.90;;;;;;5034993;28;20440;-50
2021/09/28 00:08:46;;;;;;;0.90;0.80;;;17.50;99.90;;;;;;5027643;28;20301;-50
2021/09/28 00:11:12;;;;;;;1.10;1.00;;;17.20;99.90;;;;;;5029601;28;20593;-49
2021/09/28 00:13:39;;;;;;;0.70;0.70;;;17.20;99.90;;;;;;5027357;28;20692;-49
2021/09/28 00:16:04;;;;;;;0.80;0.80;;;17.10;99.90;;;;;;5026480;28;20410;-49
2021/09/28 00:18:30;;;;;;;0.90;0.73;;;16.90;99.90;;;;;;5031028;28;20680;-49
2021/09/28 00:20:56;;;;;;;1.30;1.00;;;16.90;99.90;;;;;;5030342;28;20813;-49
2021/09/28 00:23:21;;;;;;;0.97;0.70;;;17.20;99.90;;;;;;5023673;28;20185;-49
2021/09/28 00:25:50;;;;;;;2.07;0.70;;;16.80;99.90;;;;;;5030510;28;20186;-49
2021/09/28 00:28:16;;;;;;;1.40;0.80;;;16.80;99.90;;;;;;5020536;28;20302;-50
2021/09/28 00:30:43;;;;;;;0.90;0.65;;;17.00;99.90;;;;;;5029264;28;20612;-49
2021/09/28 00:33:09;;;;;;;1.88;0.77;;;16.70;99.90;;;;;;5050365;28;20215;-50
2021/09/28 00:35:35;;;;;;;1.02;0.90;;;16.90;99.90;;;;;;5050657;28;20307;-50
2021/09/28 00:38:01;;;;;;;0.88;0.88;;;16.80;99.90;;;;;;5038805;28;20202;-50
2021/09/28 00:40:27;;;;;;;4.30;0.80;;;16.80;99.90;;;;;;5030095;28;20276;-49
2021/09/28 00:42:52;;;;;;;1.77;1.10;;;16.60;99.90;;;;;;5035249;28;20483;-49
2021/09/28 00:45:18;;;;;;;1.83;0.80;;;16.60;99.90;;;;;;5026263;28;20190;-49
2021/09/28 00:47:43;;;;;;;4.10;1.10;;;16.30;99.90;;;;;;5023242;28;20206;-49
2021/09/28 00:50:10;;;;;;;2.60;0.97;;;16.10;99.90;;;;;;5036594;28;20547;-50
2021/09/28 00:52:35;;;;;;;1.20;1.00;;;16.10;99.90;;;;;;5026926;28;20186;-50
2021/09/28 00:55:01;;;;;;;2.10;1.10;;;16.20;99.90;;;;;;5038446;28;20224;-50
2021/09/28 00:57:27;;;;;;;2.10;0.80;;;15.80;99.90;;;;;;5032757;28;20666;-50
2021/09/28 00:59:55;;;;;;;3.63;1.30;;;16.20;99.90;;;;;;5028703;28;20214;-49
2021/09/28 01:02:21;;;;;;;1.60;1.08;;;15.70;99.90;;;;;;5034370;28;20264;-49
2021/09/28 01:04:46;;;;;;;2.17;0.80;;;15.80;99.90;;;;;;5037687;28;20691;-49
2021/09/28 01:07:12;;;;;;;3.60;1.10;;;15.60;99.90;;;;;;5022982;28;20198;-49
2021/09/28 01:09:39;;;;;;;3.43;1.27;;;15.60;99.90;;;;;;5028572;28;20182;-50
2021/09/28 01:12:06;;;;;;;2.10;1.20;;;15.50;99.90;;;;;;5030101;28;20209;-49
2021/09/28 01:14:32;;;;;;;2.38;1.50;;;15.50;99.90;;;;;;5022219;28;20679;-49
2021/09/28 01:16:58;;;;;;;2.10;1.10;;;15.30;99.90;;;;;;5029716;28;20189;-49
2021/09/28 01:19:23;;;;;;;1.07;0.93;;;15.40;99.90;;;;;;5028757;28;20464;-50
2021/09/28 01:21:50;;;;;;;1.60;1.23;;;15.50;99.90;;;;;;5024312;28;20214;-50
2021/09/28 01:24:16;;;;;;;1.60;1.05;;;15.60;99.90;;;;;;5028604;28;20247;-48
2021/09/28 01:26:42;;;;;;;2.03;1.02;;;15.40;99.90;;;;;;5030175;28;20190;-49
2021/09/28 01:29:08;;;;;;;1.73;1.63;;;15.50;99.90;;;;;;5024807;28;20213;-49
2021/09/28 01:31:37;;;;;;;1.10;1.00;;;14.80;99.90;;;;;;5029610;28;20527;-48
2021/09/28 01:34:03;;;;;;;1.80;1.10;;;15.40;99.90;;;;;;5029417;28;20202;-48
2021/09/28 01:36:29;;;;;;;1.67;1.00;;;15.10;99.90;;;;;;5035463;28;20196;-48
2021/09/28 01:38:55;;;;;;;1.77;0.90;;;15.20;99.90;;;;;;5027262;28;20210;-47
2021/09/28 01:41:20;;;;;;;7.13;1.20;;;15.20;99.90;;;;;;5040600;28;20185;-49
2021/09/28 01:43:46;;;;;;;1.20;0.80;;;15.00;99.90;;;;;;5032250;28;20444;-50
2021/09/28 01:46:11;;;;;;;2.70;1.80;;;15.10;99.90;;;;;;5033989;28;20183;-49
2021/09/28 01:48:50;;;;;;;1.83;1.10;;;14.90;99.90;;;;;;5032947;28;20241;-49
2021/09/28 01:51:16;;;;;;;1.35;0.98;;;15.10;99.90;;;;;;5028716;28;20197;-50
2021/09/28 01:53:42;;;;;;;2.10;1.45;;;14.90;99.90;;;;;;5032184;28;22024;-49
2021/09/28 01:56:20;;;;;;;1.05;0.95;;;15.10;99.90;;;;;;5027810;28;20233;-49
2021/09/28 01:58:45;;;;;;;1.70;0.93;;;15.00;99.90;;;;;;5026713;28;20195;-49
2021/09/28 02:01:11;;;;;;;1.63;1.50;;;15.10;99.90;;;;;;5028699;28;20193;-50
2021/09/28 02:03:36;;;;;;;2.17;1.10;;;15.30;99.90;;;;;;5032169;28;20186;-49
2021/09/28 02:06:02;;;;;;;4.27;1.93;;;15.60;99.90;;;;;;5033147;28;20190;-50
2021/09/28 02:08:28;;;;;;;2.23;1.00;;;15.10;99.90;;;;;;5025434;28;20754;-49
2021/09/28 02:10:53;;;;;;;2.27;1.27;;;15.10;99.90;;;;;;5029365;28;20198;-50
2021/09/28 02:13:19;;;;;;;2.60;1.37;;;15.00;99.90;;;;;;5025188;28;20585;-49
2021/09/28 02:15:45;;;;;;;3.15;1.40;;;15.10;99.90;;;;;;5024141;28;20193;-48
2021/09/28 02:18:11;;;;;;;2.47;1.30;;;15.10;99.90;;;;;;5029632;28;20221;-50
2021/09/28 02:20:36;;;;;;;1.30;1.20;;;15.10;99.90;;;;;;5022295;28;20578;-49
2021/09/28 02:23:02;;;;;;;1.23;0.90;;;15.00;99.90;;;;;;5030069;28;20260;-50
2021/09/28 02:25:28;;;;;;;3.60;1.20;;;14.90;99.90;;;;;;5032447;28;20742;-50
2021/09/28 02:27:53;;;;;;;1.90;0.90;;;14.80;99.90;;;;;;5032903;28;20827;-49
2021/09/28 02:30:19;;;;;;;1.83;1.10;;;15.10;99.90;;;;;;5029122;28;20682;-50
2021/09/28 02:32:45;;;;;;;1.90;1.10;;;14.90;99.90;;;;;;5039748;28;20189;-50
2021/09/28 02:35:10;;;;;;;2.20;1.00;;;14.90;99.90;;;;;;5039738;28;20218;-50
2021/09/28 02:37:36;;;;;;;2.40;1.10;;;15.00;99.90;;;;;;5030094;28;20209;-49
2021/09/28 02:40:03;;;;;;;4.50;1.10;;;15.10;99.90;;;;;;5032296;28;20220;-50
2021/09/28 02:42:29;;;;;;;2.03;1.23;;;14.80;99.90;;;;;;5035214;28;20531;-50
2021/09/28 02:44:56;;;;;;;4.27;1.33;;;15.00;99.90;;;;;;5030669;28;20184;-49
2021/09/28 02:47:23;;;;;;;3.80;1.50;;;15.10;99.90;;;;;;5032324;28;20202;-49
2021/09/28 02:49:49;;;;;;;1.27;1.10;;;15.00;99.90;;;;;;5031571;28;20190;-49
2021/09/28 02:52:15;;;;;;;1.80;1.37;;;15.20;99.90;;;;;;5032596;28;20285;-49
2021/09/28 02:54:41;;;;;;;1.73;1.10;;;15.00;99.90;;;;;;5025967;28;20683;-49
2021/09/28 02:57:07;;;;;;;2.33;1.10;;;14.90;99.90;;;;;;5035178;28;20188;-49
2021/09/28 02:59:32;;;;;;;1.97;1.20;;;15.00;99.90;;;;;;5033074;28;20618;-50
2021/09/28 03:01:58;;;;;;;2.80;1.30;;;15.10;99.90;;;;;;5031707;28;20206;-48
2021/09/28 03:04:23;;;;;;;2.27;1.17;;;14.70;99.90;;;;;;5031169;28;20309;-49
2021/09/28 03:06:49;;;;;;;1.40;1.13;;;14.90;99.90;;;;;;5030195;28;20191;-49
2021/09/28 03:09:14;;;;;;;1.70;1.30;;;15.00;99.90;;;;;;5032148;28;20210;-49
2021/09/28 03:11:40;;;;;;;2.90;1.20;;;15.00;99.90;;;;;;5031967;28;20208;-49
2021/09/28 03:14:06;;;;;;;2.30;1.20;;;14.80;99.90;;;;;;5025778;28;20211;-49
2021/09/28 03:16:32;;;;;;;1.37;1.27;;;14.90;99.90;;;;;;5031891;28;20572;-49
2021/09/28 03:18:57;;;;;;;1.50;1.20;;;14.60;99.90;;;;;;5031029;28;20300;-49
2021/09/28 03:21:23;;;;;;;3.70;1.37;;;14.60;99.90;;;;;;5024268;28;20273;-48
2021/09/28 03:23:48;;;;;;;2.00;1.10;;;14.50;99.90;;;;;;5029577;28;20658;-48
2021/09/28 03:26:14;;;;;;;2.00;1.50;;;14.50;99.90;;;;;;5032040;28;20194;-49
2021/09/28 03:28:40;;;;;;;5.50;1.30;;;14.30;99.90;;;;;;5029817;28;20206;-49
2021/09/28 03:31:05;;;;;;;3.60;1.50;;;14.40;99.90;;;;;;5032077;28;20502;-49
2021/09/28 03:33:31;;;;;;;2.40;1.20;;;14.50;99.90;;;;;;5031220;28;20261;-49
2021/09/28 03:35:57;;;;;;;2.30;1.43;;;14.10;99.90;;;;;;5031516;28;20352;-49
2021/09/28 03:38:22;;;;;;;3.27;1.47;;;14.10;99.90;;;;;;5028857;28;20206;-48
2021/09/28 03:40:48;;;;;;;2.27;1.33;;;14.40;99.90;;;;;;5031017;28;20261;-49
2021/09/28 03:43:14;;;;;;;2.37;1.40;;;14.40;99.90;;;;;;5031670;28;20201;-49
2021/09/28 03:45:40;;;;;;;3.50;1.33;;;14.20;99.90;;;;;;5034701;28;20529;-50
2021/09/28 03:48:06;;;;;;;5.53;1.73;;;14.30;99.90;;;;;;5032087;28;20205;-49
2021/09/28 03:50:32;;;;;;;2.05;1.42;;;14.30;99.90;;;;;;5029040;28;20193;-48
2021/09/28 03:52:58;;;;;;;1.83;1.40;;;14.50;99.90;;;;;;5029271;28;20601;-49
2021/09/28 03:55:23;;;;;;;2.30;1.67;;;14.40;99.90;;;;;;5031385;28;20190;-49
2021/09/28 03:57:50;;;;;;;1.77;1.40;;;14.20;99.90;;;;;;5030704;28;20206;-49
2021/09/28 04:00:18;;;;;;;1.70;1.35;;;14.50;99.90;;;;;;5030566;28;20170;-49
2021/09/28 04:02:44;;;;;;;2.70;1.83;;;14.20;99.90;;;;;;5034668;28;20186;-49
2021/09/28 04:05:10;;;;;;;1.63;1.30;;;14.00;99.90;;;;;;5030781;28;20200;-48
2021/09/28 04:07:37;;;;;;;2.00;1.48;;;14.10;99.90;;;;;;5034798;28;20466;-48
2021/09/28 04:10:04;;;;;;;3.67;1.60;;;14.30;99.90;;;;;;5028011;28;20247;-49
2021/09/28 04:12:30;;;;;;;4.07;2.75;;;14.30;99.90;;;;;;5030859;28;20243;-49
2021/09/28 04:14:58;;;;;;;1.90;1.70;;;14.10;99.90;;;;;;5023995;28;20794;-49
2021/09/28 04:17:24;;;;;;;2.00;1.80;;;14.10;99.90;;;;;;5030329;28;20662;-50
2021/09/28 04:19:50;;;;;;;3.90;1.52;;;13.80;99.90;;;;;;5029878;28;20200;-50
2021/09/28 04:22:16;;;;;;;2.43;1.87;;;14.00;99.90;;;;;;5029942;28;20719;-50
2021/09/28 04:24:41;;;;;;;2.70;1.80;;;14.00;99.90;;;;;;5026868;28;20198;-49
2021/09/28 04:27:07;;;;;;;3.27;1.93;;;13.90;99.90;;;;;;5030154;28;20539;-49
2021/09/28 04:29:33;;;;;;;1.63;1.33;;;13.90;99.90;;;;;;5029110;28;20258;-49
2021/09/28 04:31:58;;;;;;;2.33;1.90;;;13.50;99.90;;;;;;5033426;28;20192;-50
2021/09/28 04:34:24;;;;;;;3.20;1.80;;;13.60;99.90;;;;;;5040212;28;20213;-50
2021/09/28 04:36:50;;;;;;;6.70;1.90;;;13.60;99.90;;;;;;5029745;28;20178;-50
2021/09/28 04:39:15;;;;;;;2.43;1.93;;;13.60;99.90;;;;;;5025263;28;20505;-48
2021/09/28 04:41:41;;;;;;;4.10;1.80;;;13.40;99.90;;;;;;5029980;28;20186;-50
2021/09/28 04:44:07;;;;;;;4.73;1.83;;;13.40;99.90;;;;;;5031833;28;20193;-50
2021/09/28 04:46:33;;;;;;;2.50;2.07;;;13.70;99.90;;;;;;5024575;28;20448;-50
2021/09/28 04:48:59;;;;;;;3.23;2.00;;;13.30;99.90;;;;;;5028526;28;20355;-50
2021/09/28 04:51:24;;;;;;;2.17;1.67;;;13.50;99.90;;;;;;5027669;28;20242;-49
2021/09/28 04:53:50;;;;;;;2.27;1.97;;;13.60;99.90;;;;;;5020768;28;20518;-48
2021/09/28 04:56:16;;;;;;;4.00;2.13;;;13.40;99.90;;;;;;5030114;28;20271;-49
2021/09/28 04:58:41;;;;;;;4.20;2.40;;;13.50;99.90;;;;;;5026809;28;20613;-49
2021/09/28 05:01:07;;;;;;;3.43;2.20;;;13.40;99.90;;;;;;5029921;28;20199;-49
2021/09/28 05:03:32;;;;;;;4.47;2.30;;;13.50;99.90;;;;;;5027124;28;20280;-49
2021/09/28 05:05:58;;;;;;;3.30;2.60;;;13.40;99.90;;;;;;5027014;28;20648;-52
2021/09/28 05:08:24;;;;;;;3.47;3.17;;;13.40;99.90;;;;;;5032928;28;20209;-53
2021/09/28 05:10:50;;;;;;;5.17;2.83;;;13.50;99.90;;;;;;5024489;28;20658;-54
2021/09/28 05:13:16;;;;;;;3.35;2.63;;;13.30;99.90;;;;;;5038861;28;20262;-50
2021/09/28 05:15:43;;;;;;;6.07;3.22;;;13.30;99.90;;;;;;5026276;28;20943;-51
2021/09/28 05:18:08;;;;;;;3.28;2.80;;;13.30;99.90;;;;;;5029486;28;20223;-50
2021/09/28 05:20:35;;;;;;;6.27;2.80;;;13.60;99.90;;;;;;5024816;28;20178;-50
2021/09/28 05:23:01;;;;;;;5.55;2.55;;;13.40;99.90;;;;;;5025146;28;20209;-52
2021/09/28 05:25:27;;;;;;;4.13;3.00;;;13.40;99.90;;;;;;5020985;28;20180;-50
2021/09/28 05:27:53;;;;;;;5.47;3.70;;;13.20;99.90;;;;;;5026873;28;20217;-49
2021/09/28 05:30:20;;;;;;;4.07;2.72;;;13.40;99.90;;;;;;5023499;28;20501;-50
2021/09/28 05:32:45;;;;;;;5.55;3.67;;;13.50;99.90;;;;;;5027490;28;20549;-50
2021/09/28 05:35:12;;;;;;;5.70;3.57;;;13.30;99.90;;;;;;5026432;28;20236;-50
2021/09/28 05:37:38;;;;;;;3.15;2.83;;;13.10;99.90;;;;;;5024106;28;20210;-51
2021/09/28 05:40:05;;;;;;;5.32;2.75;;;13.40;99.90;;;;;;5019961;28;20846;-51
2021/09/28 05:42:30;;;;;;;4.80;3.53;;;13.40;99.90;;;;;;5020093;28;20256;-50
2021/09/28 05:44:57;;;;;;;3.13;2.80;;;13.70;99.90;;;;;;5016471;28;20664;-50
2021/09/28 05:47:22;;;;;;;4.30;3.40;;;13.60;99.90;;;;;;5027566;28;20217;-50
2021/09/28 05:49:48;;;;;;;5.20;3.43;;;13.60;99.90;;;;;;5022407;28;20209;-49
2021/09/28 05:52:16;;;;;;;5.07;3.50;;;13.50;99.90;;;;;;5017646;28;20194;-49
2021/09/28 05:54:48;;;;;;;3.70;2.97;;;13.50;99.90;;;;;;5022744;28;21025;-50
2021/09/28 05:57:19;;;;;;;4.00;2.65;;;13.60;99.90;;;;;;5029254;28;20499;-50
2021/09/28 05:59:46;;;;;;;3.35;2.92;;;13.80;99.90;;;;;;5023614;28;20191;-50
2021/09/28 06:02:13;;;;;;;4.88;3.50;;;13.60;99.90;;;;;;5026937;28;20220;-50
2021/09/28 06:04:39;;;;;;;3.88;3.10;;;13.60;99.90;;;;;;5034004;28;20181;-48
2021/09/28 06:07:05;;;;;;;4.75;4.35;;;13.80;99.90;;;;;;5027406;28;20197;-49
2021/09/28 06:09:36;;;;;;;12.80;4.00;;;13.70;99.90;;;;;;5024484;28;20584;-49
2021/09/28 06:12:03;;;;;;;5.10;3.60;;;13.60;99.90;;;;;;5029656;28;20447;-49
2021/09/28 06:14:29;;;;;;;3.65;3.35;;;13.80;99.90;;;;;;5033290;28;20219;-49
2021/09/28 06:16:54;;;;;;;4.20;3.33;;;13.60;99.90;;;;;;5030274;28;20178;-50
2021/09/28 06:19:20;;;;;;;3.97;3.40;;;13.80;99.90;;;;;;5029540;28;20582;-51
2021/09/28 06:21:46;;;;;;;3.80;3.40;;;13.70;99.90;;;;;;5037235;28;20204;-51
2021/09/28 06:24:11;;;;;;;5.40;3.50;;;13.70;99.90;;;;;;5032406;28;20834;-51
2021/09/28 06:26:37;;;;;;;8.17;3.77;;;13.30;99.90;;;;;;5026661;28;20186;-50
2021/09/28 06:29:03;;;;;;;3.57;3.27;;;14.00;99.90;;;;;;5031710;28;20297;-50
2021/09/28 06:31:29;;;;;;;4.10;3.10;;;14.10;99.90;;;;;;5030430;28;20201;-50
2021/09/28 06:33:54;;;;;;;4.80;3.17;;;14.00;99.90;;;;;;5034347;28;20216;-51
2021/09/28 06:36:20;;;;;;;6.53;3.33;;;14.00;99.90;;;;;;5032999;28;20190;-51
2021/09/28 06:38:46;;;;;;;4.60;3.43;;;14.10;99.90;;;;;;5026673;28;20248;-52
2021/09/28 06:41:11;;;;;;;5.80;3.40;;;14.20;99.90;;;;;;5032090;28;20570;-50
2021/09/28 06:43:37;;;;;;;4.20;3.57;;;14.20;99.90;;;;;;5031300;28;20201;-50
2021/09/28 06:46:05;;;;;;;4.80;3.13;;;14.30;99.90;;;;;;5032665;28;20198;-50
2021/09/28 06:48:31;;;;;;;5.47;3.15;;;14.40;99.90;;;;;;5024869;28;20260;-50
2021/09/28 06:50:57;;;;;;;3.63;3.30;;;14.50;99.90;;;;;;5026257;28;20232;-49
2021/09/28 06:53:22;;;;;;;3.97;2.90;;;14.40;99.90;;;;;;5031456;28;20544;-52
2021/09/28 06:55:48;;;;;;;4.43;3.37;;;14.30;99.90;;;;;;5032895;28;20193;-49
2021/09/28 06:58:14;;;;;;;3.90;3.43;;;14.40;99.90;;;;;;5024266;28;20212;-48
2021/09/28 07:00:40;;;;;;;4.87;3.00;;;14.20;99.90;;;;;;5019390;28;20179;-49
2021/09/28 07:03:05;;;;;;;4.80;3.10;;;14.60;99.90;;;;;;5030088;28;20633;-49
2021/09/28 07:05:32;;;;;;;3.90;2.90;;;14.50;99.90;;;;;;5023772;28;20178;-51
2021/09/28 07:07:58;;;;;;;5.82;2.92;;;15.30;99.90;;;;;;5025691;28;20198;-52
2021/09/28 07:10:23;;;;;;;4.77;3.10;;;15.10;99.90;;;;;;5027619;28;20256;-53
2021/09/28 07:12:49;;;;;;;5.83;3.10;;;15.10;99.90;;;;;;5026794;28;20252;-52
2021/09/28 07:15:16;;;;;;;5.00;3.13;;;15.30;99.90;;;;;;5026728;28;20213;-51
2021/09/28 07:17:43;;;;;;;7.13;3.53;;;15.30;99.90;;;;;;5025895;28;20203;-50
2021/09/28 07:20:11;;;;;;;4.03;3.17;;;15.30;99.90;;;;;;5028771;28;20240;-50
2021/09/28 07:22:37;;;;;;;6.05;3.65;;;15.90;99.90;;;;;;5031077;28;20547;-51
2021/09/28 07:25:03;;;;;;;5.65;3.63;;;15.80;99.90;;;;;;5031485;28;20186;-50
2021/09/28 07:27:29;;;;;;;6.78;3.70;;;16.20;99.90;;;;;;5029055;28;20707;-51
2021/09/28 07:29:55;;;;;;;6.23;3.53;;;16.60;99.90;;;;;;5022311;28;20443;-50
2021/09/28 07:32:22;;;;;;;4.85;3.55;;;16.70;99.90;;;;;;5031714;28;20441;-49
2021/09/28 07:34:49;;;;;;;6.57;3.05;;;16.70;99.90;;;;;;5031376;28;20210;-50
2021/09/28 07:37:15;;;;;;;6.60;4.10;;;16.90;99.90;;;;;;5026773;28;20182;-50
2021/09/28 07:39:41;;;;;;;5.80;4.10;;;16.60;99.90;;;;;;5031873;28;20183;-52
2021/09/28 07:42:07;;;;;;;4.70;4.10;;;16.70;99.90;;;;;;5035282;28;20190;-51
2021/09/28 07:44:33;;;;;;;4.20;3.80;;;16.80;99.90;;;;;;5023559;28;20700;-49
2021/09/28 07:46:59;;;;;;;4.80;3.70;;;17.50;99.90;;;;;;5028537;28;20449;-50
2021/09/28 07:49:26;;;;;;;5.30;3.20;;;17.20;99.90;;;;;;5024844;28;20210;-51
2021/09/28 07:51:52;;;;;;;6.07;4.03;;;17.30;99.90;;;;;;5031476;28;20197;-50
2021/09/28 07:54:18;;;;;;;6.63;3.58;;;17.60;99.90;;;;;;5030765;28;20223;-50
2021/09/28 07:56:44;;;;;;;4.90;3.80;;;17.90;99.90;;;;;;5031534;28;20272;-51
2021/09/28 07:59:10;;;;;;;5.77;4.00;;;18.10;99.90;;;;;;5025009;28;20206;-50
2021/09/28 08:01:36;;;;;;;4.63;3.70;;;17.50;99.90;;;;;;5038151;28;20192;-49
2021/09/28 08:04:03;;;;;;;6.75;3.30;;;17.10;99.90;;;;;;5028183;28;20239;-51
2021/09/28 08:06:28;;;;;;;3.67;3.33;;;17.30;99.90;;;;;;5031098;28;20188;-49
2021/09/28 08:08:54;;;;;;;4.20;3.80;;;17.50;99.90;;;;;;5031802;28;20202;-50
2021/09/28 08:11:20;;;;;;;8.33;5.03;;;17.10;99.90;;;;;;5031056;28;20441;-50
2021/09/28 08:13:46;;;;;;;5.80;5.20;;;17.10;99.90;;;;;;5034189;28;20710;-49
2021/09/28 08:16:13;;;;;;;5.97;5.20;;;17.10;99.90;;;;;;5025341;28;20523;-49
2021/09/28 08:18:38;;;;;;;5.55;4.97;;;17.50;99.90;;;;;;5030555;28;20200;-49
2021/09/28 08:21:04;;;;;;;6.97;4.57;;;17.70;99.90;;;;;;5025270;28;20186;-50
2021/09/28 08:23:30;;;;;;;5.37;4.53;;;17.80;99.80;;;;;;5031241;28;20195;-48
2021/09/28 08:31:10;;;;;;;12.10;4.70;;;18.00;99.90;;;;;;5034460;28;20289;-51
2021/09/28 08:33:37;;;;;;;6.05;4.75;;;17.90;99.50;;;;;;5028864;28;20212;-51
2021/09/28 08:36:05;;;;;;;6.10;5.50;;;18.10;99.70;;;;;;5030672;28;20190;-49
2021/09/28 08:38:31;;;;;;;5.68;5.03;;;18.20;99.50;;;;;;5040667;28;20217;-50
2021/09/28 08:40:59;;;;;;;5.13;3.78;;;18.00;99.90;;;;;;5031056;28;20248;-49
2021/09/28 08:43:25;;;;;;;7.40;4.88;;;18.10;99.60;;;;;;5030484;28;20178;-50
2021/09/28 08:45:52;;;;;;;5.60;3.80;;;17.70;99.10;;;;;;5028073;28;20182;-50
2021/09/28 08:48:19;;;;;;;5.25;3.88;;;17.60;99.40;;;;;;5030630;28;20194;-50
2021/09/28 08:50:46;;;;;;;6.43;4.93;;;17.90;98.90;;;;;;5033432;28;20186;-48
2021/09/28 08:53:19;;;;;;;5.90;4.43;;;17.90;98.60;;;;;;5022378;28;20192;-49
2021/09/28 08:55:45;;;;;;;4.32;3.97;;;18.10;98.50;;;;;;5030936;28;20670;-49
2021/09/28 08:58:13;;;;;;;6.18;4.93;;;18.50;98.10;;;;;;5028787;28;20202;-51
2021/09/28 09:00:39;;;;;;;4.95;4.40;;;18.70;97.10;;;;;;5026937;28;20227;-51
2021/09/28 09:03:23;;;;;;;6.67;4.60;;;18.80;96.60;;;;;;5019267;28;20214;-51
2021/09/28 09:05:49;;;;;;;5.15;4.75;;;18.90;96.30;;;;;;5028681;28;20251;-52
2021/09/28 09:08:22;;;;;;;6.00;5.40;;;18.80;96.50;;;;;;5029306;28;20202;-51
2021/09/28 09:10:47;;;;;;;8.38;5.40;;;18.80;96.90;;;;;;5020924;28;20272;-52
2021/09/28 09:13:35;;;;;;;6.30;5.60;;;18.40;96.80;;;;;;5028050;28;20269;-51
2021/09/28 09:16:01;;;;;;;5.85;5.35;;;17.90;97.80;;;;;;5024804;28;20205;-52
2021/09/28 09:18:27;;;;;;;9.45;5.05;;;17.90;97.80;;;;;;5021504;28;20208;-51
2021/09/28 09:20:52;;;;;;;6.40;5.47;;;18.00;98.50;;;;;;5029258;28;20186;-50
2021/09/28 09:23:36;;;;;;;7.00;5.00;;;17.70;98.70;;;;;;5025551;28;20436;-51
2021/09/28 09:26:20;;;;;;;7.15;5.68;;;17.80;99.10;;;;;;5027856;28;20201;-51
2021/09/28 09:28:55;;;;;;;8.50;6.25;;;17.30;99.40;;;;;;5032492;28;20223;-51
2021/09/28 09:31:25;;;;;;;5.35;4.85;;;17.60;99.40;;;;;;5047693;28;20207;-50
2021/09/28 09:33:53;;;;;;;5.63;4.72;;;17.80;99.20;;;;;;5049021;28;20675;-52
2021/09/28 09:36:21;;;;;;;6.03;5.53;;;17.90;98.50;;;;;;5049288;28;20527;-51
2021/09/28 09:38:49;;;;;;;7.47;4.80;;;17.10;98.90;;;;;;5029526;28;20205;-52
2021/09/28 09:41:16;;;;;;;7.43;5.38;;;17.20;99.50;;;;;;5029144;28;20193;-51
2021/09/28 09:43:43;;;;;;;7.00;4.90;;;17.20;99.40;;;;;;5025627;28;20189;-53
2021/09/28 09:46:12;;;;;;;7.75;4.60;;;18.10;98.20;;;;;;5028739;28;20197;-51
2021/09/28 09:48:41;;;;;;;3.70;3.40;;;19.90;95.10;;;;;;5028111;28;20210;-53
2021/09/28 09:51:19;;;;;;;4.90;3.47;;;21.40;91.20;;;;;;5028815;28;20183;-52
2021/09/28 09:53:59;;;;;;;5.57;3.57;;;22.70;87.20;;;;;;5022037;28;20497;-52
2021/09/28 09:56:45;;;;;;;4.47;3.70;;;24.70;81.10;;;;;;5029084;28;20440;-54
2021/09/28 09:59:11;;;;;;;4.93;3.30;;;25.40;76.00;;;;;;5031633;28;20790;-52
2021/09/28 10:01:37;;;;;;;5.13;3.77;;;26.20;73.00;;;;;;5032695;28;20421;-53
2021/09/28 10:04:07;;;;;;;9.73;4.03;;;25.90;68.70;;;;;;5032343;28;20797;-52
2021/09/28 10:06:33;;;;;;;5.17;3.80;;;25.40;71.80;;;;;;5029716;28;20479;-54
2021/09/28 10:09:00;;;;;;;5.10;3.80;;;24.90;73.00;;;;;;5019711;28;20439;-53
2021/09/28 10:11:26;;;;;;;4.90;4.10;;;24.10;72.50;;;;;;5032441;28;20233;-53
2021/09/28 10:13:57;;;;;;;5.63;4.40;;;23.40;74.70;;;;;;5027636;28;20477;-52
2021/09/28 10:16:33;;;;;;;3.70;3.13;;;22.90;76.40;;;;;;5026465;28;20429;-53
2021/09/28 10:18:59;;;;;;;4.88;3.30;;;22.20;77.90;;;;;;5032373;28;21075;-52
2021/09/28 10:21:42;;;;;;;7.32;3.70;;;21.50;79.50;;;;;;5031784;28;20182;-52
2021/09/28 10:24:18;;;;;;;4.57;3.88;;;21.00;82.10;;;;;;5024184;28;20211;-53
2021/09/28 10:26:56;;;;;;;7.35;4.40;;;20.70;83.10;;;;;;5019287;28;20216;-53
2021/09/28 10:29:37;;;;;;;4.90;3.58;;;20.30;84.40;;;;;;5024471;28;20228;-53
2021/09/28 10:32:25;;;;;;;5.00;3.50;;;20.00;85.00;;;;;;5031960;28;20190;-53
2021/09/28 10:35:07;;;;;;;4.13;3.75;;;19.60;86.60;;;;;;5031515;28;20220;-52
2021/09/28 10:37:41;;;;;;;4.90;4.18;;;19.30;89.40;;;;;;5031750;28;20237;-52
2021/09/28 10:40:27;;;;;;;5.50;3.53;;;19.40;89.20;;;;;;5024039;28;20177;-53
2021/09/28 10:43:26;;;;;;;6.55;3.35;;;19.40;86.60;;;;;;5020892;28;20202;-52
2021/09/28 10:45:52;;;;;;;4.30;3.13;;;19.50;87.40;;;;;;5028291;28;20198;-53
2021/09/28 10:48:24;;;;;;;3.63;3.33;;;19.40;87.10;;;;;;5028167;28;20209;-53
2021/09/28 10:51:22;;;;;;;4.45;3.47;;;19.30;87.50;;;;;;5031752;28;20182;-52
2021/09/28 10:53:53;;;;;;;5.80;3.38;;;19.60;87.80;;;;;;5024801;28;20215;-52
2021/09/28 10:56:19;;;;;;;3.15;2.75;;;20.00;86.60;;;;;;5031430;28;20178;-51
2021/09/28 10:59:01;;;;;;;2.58;2.38;;;20.30;84.40;;;;;;5030894;28;20212;-52
2021/09/28 11:01:32;;;;;;;3.72;2.80;;;21.00;79.80;;;;;;5031560;28;20205;-52
2021/09/28 11:04:15;;;;;;;4.63;2.70;;;21.30;79.40;;;;;;5031583;28;20201;-52
2021/09/28 11:06:41;;;;;;;5.40;3.30;;;21.20;78.60;;;;;;5031517;28;20596;-52
2021/09/28 11:09:10;;;;;;;7.57;4.43;;;21.10;79.50;;;;;;5034208;28;20244;-52
2021/09/28 11:11:36;;;;;;;5.60;3.30;;;21.10;80.60;;;;;;5042732;28;20281;-53
2021/09/28 11:14:05;;;;;;;3.80;3.10;;;20.90;80.40;;;;;;5029076;28;20219;-52
2021/09/28 11:17:11;;;;;;;4.43;3.40;;;20.70;81.20;;;;;;5040657;28;20182;-52
2021/09/28 11:19:40;;;;;;;4.25;3.42;;;20.30;81.60;;;;;;5031357;28;20221;-51
2021/09/28 11:22:10;;;;;;;4.65;3.17;;;20.10;82.50;;;;;;5026547;28;20191;-52
2021/09/28 11:24:37;;;;;;;5.50;4.45;;;20.00;82.50;;;;;;5027547;28;20186;-52
2021/09/28 11:27:09;;;;;;;3.80;3.25;;;19.70;83.20;;;;;;5031131;28;20272;-51
2021/09/28 11:29:36;;;;;;;3.72;3.42;;;19.60;83.20;;;;;;5023508;28;20311;-51
2021/09/28 11:32:04;;;;;;;6.40;3.95;;;19.60;83.00;;;;;;5030989;28;20202;-51
2021/09/28 11:34:33;;;;;;;5.25;3.38;;;19.20;82.90;;;;;;5030412;28;20264;-52
2021/09/28 11:37:03;;;;;;;5.45;4.10;;;19.50;83.70;;;;;;5028838;28;20655;-52
2021/09/28 11:39:32;;;;;;;5.05;3.40;;;19.30;83.50;;;;;;5029386;28;20293;-51
2021/09/28 11:41:58;;;;;;;3.50;3.03;;;19.40;83.60;;;;;;5031072;28;20196;-51
2021/09/28 11:44:36;;;;;;;4.57;3.07;;;19.40;82.80;;;;;;5027221;28;20507;-51
2021/09/28 11:47:02;;;;;;;3.53;3.00;;;19.60;83.20;;;;;;5042775;28;20189;-50
2021/09/28 11:49:28;;;;;;;4.57;3.60;;;19.50;83.00;;;;;;5029391;28;20210;-51
2021/09/28 11:51:54;;;;;;;5.50;3.78;;;19.60;83.20;;;;;;5027769;28;20283;-50
2021/09/28 11:54:19;;;;;;;3.23;3.00;;;19.50;83.30;;;;;;5030587;28;20325;-51
2021/09/28 11:56:47;;;;;;;3.73;3.30;;;19.80;83.00;;;;;;5025081;28;20277;-53
2021/09/28 11:59:18;;;;;;;3.95;3.63;;;19.60;84.40;;;;;;5027276;28;20202;-53
2021/09/28 12:01:45;;;;;;;3.58;3.20;;;19.70;83.80;;;;;;5024333;28;20686;-52
2021/09/28 12:09:51;;;;;;;4.22;3.80;;;19.50;82.30;;;;;;5020421;28;20190;-50
2021/09/28 12:12:22;;;;;;;4.60;4.20;;;20.00;81.30;;;;;;5028297;28;20185;-50
2021/09/28 12:14:50;;;;;;;4.32;3.80;;;19.90;81.50;;;;;;5026847;28;20683;-50
2021/09/28 12:17:20;;;;;;;5.80;4.00;;;19.80;82.00;;;;;;5028720;28;20178;-51
2021/09/28 12:19:57;;;;;;;5.75;3.85;;;20.00;82.30;;;;;;5026942;28;20182;-55
2021/09/28 12:22:57;;;;;;;3.75;3.45;;;19.90;82.00;;;;;;5027259;28;20178;-54
2021/09/28 12:25:43;;;;;;;5.35;3.80;;;19.20;82.50;;;;;;5035218;28;20182;-52
2021/09/28 12:28:14;;;;;;;6.18;4.55;;;19.30;84.60;;;;;;5021491;28;20232;-53
2021/09/28 12:30:50;;;;;;;6.97;4.28;;;19.50;85.50;;;;;;5019905;28;20189;-52
2021/09/28 12:33:16;;;;;;;4.47;4.05;;;19.60;84.50;;;;;;5025113;28;20182;-51
2021/09/28 12:35:42;;;;;;;4.57;4.17;;;19.50;83.90;;;;;;5033068;28;20239;-52
2021/09/28 12:38:11;;;;;;;4.55;4.10;;;19.60;86.00;;;;;;5021570;28;20211;-52
2021/09/28 12:40:43;;;;;;;8.75;5.03;;;19.30;84.50;;;;;;5019016;28;20351;-51
2021/09/28 12:43:15;;;;;;;8.45;4.95;;;19.60;84.70;;;;;;5028553;28;20189;-52
2021/09/28 12:45:48;;;;;;;6.43;4.05;;;19.80;82.90;;;;;;5020656;28;20699;-52
2021/09/28 12:48:15;;;;;;;5.13;4.63;;;19.80;83.20;;;;;;5027900;28;20683;-52
2021/09/28 12:50:42;;;;;;;5.38;4.55;;;19.90;82.70;;;;;;5021825;28;20226;-51
2021/09/28 12:53:11;;;;;;;5.85;4.80;;;19.90;82.90;;;;;;5018540;28;20194;-50
2021/09/28 12:55:38;;;;;;;5.95;4.75;;;20.10;83.30;;;;;;5020599;28;20244;-52
2021/09/28 12:58:14;;;;;;;4.90;4.40;;;20.20;83.40;;;;;;5023313;28;20220;-53
2021/09/28 13:00:42;;;;;;;5.72;4.10;;;20.30;83.50;;;;;;5020310;28;20328;-53
2021/09/28 13:03:25;;;;;;;4.68;4.10;;;20.10;85.30;;;;;;5027537;28;20186;-54